Time;durP1;ratioP1;P1;durP2;ratioP2;P2;SDS_P1;SDS_P2;PMS_P1;PMS_P2;Temp;Humidity;BMP_temperature;BMP_pressure;BME280_temperature;BME280_humidity;BME280_pressure;Samples;Min_cycle;Max_cycle;Signal;HPM_P1;HPM_P2
2021/08/23 00:00:06;;;;;;;7.18;3.50;;;;;;;16.69;100.00;97869.72;5017588;28;20385;-77
2021/08/23 00:02:34;;;;;;;6.57;3.33;;;;;;;16.67;100.00;97874.72;5019368;28;20501;-79
2021/08/23 00:05:01;;;;;;;9.20;3.50;;;;;;;16.57;100.00;97869.00;5018092;28;20061;-77
2021/08/23 00:07:27;;;;;;;7.72;3.50;;;;;;;16.51;100.00;97875.81;5017740;28;20049;-78
2021/08/23 00:09:54;;;;;;;11.90;3.63;;;;;;;16.53;100.00;97889.94;5012835;28;20046;-78
2021/08/23 00:12:24;;;;;;;7.85;3.78;;;;;;;16.53;100.00;97882.56;5011569;28;20041;-77
2021/08/23 00:14:51;;;;;;;8.65;3.67;;;;;;;16.62;100.00;97876.94;5011360;28;20253;-79
2021/08/23 00:17:18;;;;;;;7.55;3.63;;;;;;;16.57;100.00;97866.25;5014830;28;20073;-78
2021/08/23 00:19:44;;;;;;;7.85;3.70;;;;;;;16.68;100.00;97870.88;4997181;28;20469;-78
2021/08/23 00:22:30;;;;;;;6.90;3.63;;;;;;;16.60;100.00;97857.34;4997148;28;20042;-78
2021/08/23 00:25:00;;;;;;;6.53;3.72;;;;;;;16.75;100.00;97870.25;5013664;28;20045;-79
2021/08/23 00:27:29;;;;;;;8.15;3.80;;;;;;;16.73;100.00;97865.16;4996806;28;20046;-78
2021/08/23 00:29:56;;;;;;;8.27;3.65;;;;;;;16.70;100.00;97854.09;5016889;28;20405;-78
2021/08/23 00:32:24;;;;;;;7.05;3.58;;;;;;;16.84;100.00;97859.97;4999110;28;20046;-78
2021/08/23 00:34:50;;;;;;;6.70;3.90;;;;;;;16.72;100.00;97866.28;5016952;28;20128;-79
2021/08/23 00:37:17;;;;;;;8.60;3.30;;;;;;;16.68;100.00;97854.47;4998504;28;20102;-78
2021/08/23 00:39:43;;;;;;;5.53;3.15;;;;;;;16.81;100.00;97852.47;5015733;28;20305;-79
2021/08/23 00:42:10;;;;;;;9.88;3.65;;;;;;;16.68;100.00;97861.88;5017060;28;20058;-79
2021/08/23 00:44:40;;;;;;;6.07;3.60;;;;;;;16.76;100.00;97860.91;5018059;28;20126;-78
2021/08/23 00:47:08;;;;;;;9.20;4.03;;;;;;;16.82;100.00;97848.59;5000610;28;20084;-80
2021/08/23 00:49:35;;;;;;;7.70;3.72;;;;;;;16.69;100.00;97850.59;5000672;28;20096;-79
2021/08/23 00:52:07;;;;;;;7.60;3.70;;;;;;;16.66;100.00;97851.28;5018708;28;20042;-78
2021/08/23 00:54:35;;;;;;;6.90;3.85;;;;;;;16.82;100.00;97845.84;5019640;28;20042;-79
2021/08/23 00:57:06;;;;;;;7.38;4.40;;;;;;;16.61;100.00;97845.28;4999677;28;20042;-78
2021/08/23 00:59:36;;;;;;;7.78;4.05;;;;;;;16.71;100.00;97855.69;5018968;28;20452;-79
2021/08/23 01:02:43;;;;;;;8.25;3.90;;;;;;;16.66;100.00;97855.97;5018489;28;20053;-79
2021/08/23 01:05:18;;;;;;;10.35;3.97;;;;;;;16.66;100.00;97847.75;5001181;28;20046;-79
2021/08/23 01:07:56;;;;;;;7.57;4.30;;;;;;;16.53;100.00;97852.47;5015572;28;20050;-79
2021/08/23 01:10:45;;;;;;;6.07;3.65;;;;;;;16.67;100.00;97849.34;4998047;28;20058;-78
2021/08/23 01:13:12;;;;;;;8.55;3.95;;;;;;;16.52;100.00;97850.88;5013892;28;20506;-79
2021/08/23 01:15:40;;;;;;;7.35;4.10;;;;;;;16.63;100.00;97856.66;4997298;28;20501;-79
2021/08/23 01:18:07;;;;;;;8.32;4.25;;;;;;;16.71;100.00;97858.44;5016487;28;20046;-79
2021/08/23 01:20:36;;;;;;;9.00;4.30;;;;;;;16.76;100.00;97855.44;5018545;28;20042;-79
2021/08/23 01:23:04;;;;;;;10.93;4.63;;;;;;;16.58;100.00;97846.75;5014754;28;20565;-78
2021/08/23 01:25:34;;;;;;;7.05;4.63;;;;;;;16.56;100.00;97843.59;4997611;28;20041;-79
2021/08/23 01:28:09;;;;;;;9.85;4.35;;;;;;;16.68;100.00;97846.25;4997047;28;20176;-78
2021/08/23 01:30:47;;;;;;;7.00;4.32;;;;;;;16.76;100.00;97849.97;5015459;28;20057;-78
2021/08/23 01:33:14;;;;;;;10.25;4.75;;;;;;;16.65;100.00;97854.34;4997586;28;20092;-79
2021/08/23 01:35:41;;;;;;;9.73;5.07;;;;;;;16.64;100.00;97847.31;5015938;28;20046;-78
2021/08/23 01:38:07;;;;;;;9.15;4.90;;;;;;;16.74;100.00;97849.53;5015709;28;20057;-80
2021/08/23 01:40:34;;;;;;;8.02;4.95;;;;;;;16.68;100.00;97849.00;5016334;28;20053;-77
2021/08/23 01:43:02;;;;;;;9.52;4.72;;;;;;;16.63;100.00;97851.19;5013941;28;20096;-78
2021/08/23 01:45:31;;;;;;;9.20;5.10;;;;;;;16.50;100.00;97847.69;4996622;28;20061;-77
2021/08/23 01:47:58;;;;;;;6.82;4.60;;;;;;;16.53;100.00;97833.34;5012988;28;20042;-77
2021/08/23 01:50:25;;;;;;;9.38;5.15;;;;;;;16.35;100.00;97840.22;4997840;28;20050;-78
2021/08/23 01:52:51;;;;;;;8.02;5.03;;;;;;;16.43;100.00;97836.56;5016770;28;20476;-78
2021/08/23 01:55:18;;;;;;;7.63;5.45;;;;;;;16.49;100.00;97834.38;5019141;28;20351;-79
2021/08/23 01:57:44;;;;;;;8.00;5.05;;;;;;;16.33;100.00;97837.06;5016226;28;20042;-78
2021/08/23 02:00:12;;;;;;;8.95;5.63;;;;;;;16.31;100.00;97844.00;5015430;28;20472;-77
2021/08/23 02:02:38;;;;;;;9.32;6.03;;;;;;;16.14;100.00;97832.22;5021194;28;20056;-76
2021/08/23 02:05:06;;;;;;;10.70;6.85;;;;;;;16.10;100.00;97835.97;5015451;28;20585;-77
2021/08/23 02:07:32;;;;;;;9.57;5.80;;;;;;;16.19;100.00;97833.91;5016184;28;20083;-79
2021/08/23 02:09:59;;;;;;;11.55;6.47;;;;;;;16.23;100.00;97842.22;4999696;28;20037;-78
2021/08/23 02:12:28;;;;;;;14.90;6.70;;;;;;;16.19;100.00;97836.63;5015515;28;20048;-77
2021/08/23 02:14:54;;;;;;;9.88;6.25;;;;;;;16.16;100.00;97840.03;5014709;28;20038;-77
2021/08/23 02:17:21;;;;;;;13.52;5.97;;;;;;;16.14;100.00;97837.69;5017797;28;20324;-76
2021/08/23 02:19:47;;;;;;;10.15;6.30;;;;;;;16.12;100.00;97831.78;4998487;28;20050;-77
2021/08/23 02:22:14;;;;;;;8.50;5.93;;;;;;;16.17;100.00;97833.44;4998578;28;20444;-79
2021/08/23 02:24:40;;;;;;;9.82;6.13;;;;;;;16.16;100.00;97824.47;5017702;28;20132;-77
2021/08/23 02:27:07;;;;;;;11.30;6.47;;;;;;;16.16;100.00;97826.38;5022803;28;20046;-77
2021/08/23 02:29:34;;;;;;;11.90;7.03;;;;;;;16.23;100.00;97825.81;5016493;28;20041;-77
2021/08/23 02:32:00;;;;;;;10.32;6.03;;;;;;;16.35;100.00;97829.28;5013459;28;20061;-77
2021/08/23 02:34:27;;;;;;;9.10;6.40;;;;;;;16.30;100.00;97826.81;4997113;28;20311;-78
2021/08/23 02:36:53;;;;;;;9.55;5.90;;;;;;;16.25;100.00;97821.59;4996024;28;20456;-78
2021/08/23 02:39:20;;;;;;;9.07;5.63;;;;;;;16.23;100.00;97824.66;5015397;28;20050;-78
2021/08/23 02:41:53;;;;;;;11.52;5.65;;;;;;;16.40;100.00;97809.91;5013944;28;20046;-79
2021/08/23 02:44:21;;;;;;;8.68;5.78;;;;;;;16.38;100.00;97811.41;4995815;28;20111;-78
2021/08/23 02:46:48;;;;;;;10.13;5.22;;;;;;;16.36;100.00;97806.31;5013233;28;20050;-77
2021/08/23 02:49:16;;;;;;;8.55;5.07;;;;;;;16.32;100.00;97808.13;4996286;28;20056;-77
2021/08/23 02:51:44;;;;;;;10.05;5.88;;;;;;;16.37;100.00;97809.81;4996789;28;20080;-79
2021/08/23 02:54:12;;;;;;;8.57;5.78;;;;;;;16.40;100.00;97804.44;5014476;28;20544;-78
2021/08/23 02:56:39;;;;;;;11.27;6.47;;;;;;;16.39;100.00;97805.59;5013349;28;20559;-77
2021/08/23 02:59:06;;;;;;;13.13;6.53;;;;;;;16.45;100.00;97811.59;4996629;28;20053;-79
2021/08/23 03:01:33;;;;;;;8.95;5.82;;;;;;;16.60;100.00;97819.06;4999273;28;20100;-76
2021/08/23 03:04:00;;;;;;;12.73;6.50;;;;;;;16.60;100.00;97803.47;5018198;28;20042;-80
2021/08/23 03:06:27;;;;;;;9.60;5.82;;;;;;;16.62;100.00;97814.06;5000134;28;20037;-79
2021/08/23 03:08:54;;;;;;;12.93;6.38;;;;;;;16.60;100.00;97814.41;5014869;28;20498;-77
2021/08/23 03:11:22;;;;;;;10.40;6.38;;;;;;;16.55;100.00;97809.19;5012606;28;20037;-78
2021/08/23 03:13:49;;;;;;;9.98;6.32;;;;;;;16.57;100.00;97806.13;5012824;28;20058;-78
2021/08/23 03:16:16;;;;;;;8.70;6.03;;;;;;;16.59;100.00;97799.16;4979073;28;20045;-78
2021/08/23 03:18:44;;;;;;;14.52;7.20;;;;;;;16.51;100.00;97815.69;4992190;28;20042;-78
2021/08/23 03:21:10;;;;;;;11.55;7.15;;;;;;;16.39;100.00;97805.59;4995844;28;20054;-77
2021/08/23 03:23:37;;;;;;;13.20;7.20;;;;;;;16.45;100.00;97800.66;5012359;28;20440;-79
2021/08/23 03:26:04;;;;;;;12.48;7.32;;;;;;;16.50;100.00;97795.75;5013136;28;20088;-79
2021/08/23 03:28:32;;;;;;;12.38;7.65;;;;;;;16.35;100.00;97798.44;5013003;28;20442;-79
2021/08/23 03:30:58;;;;;;;12.15;7.95;;;;;;;16.32;100.00;97790.94;5014510;28;20042;-76
2021/08/23 03:33:25;;;;;;;13.10;8.05;;;;;;;16.29;100.00;97791.63;5014076;28;20461;-79
2021/08/23 03:35:52;;;;;;;13.68;8.32;;;;;;;16.35;100.00;97792.97;5012375;28;20506;-78
2021/08/23 03:38:18;;;;;;;14.25;8.18;;;;;;;16.46;100.00;97802.28;4996200;28;20042;-77
2021/08/23 03:40:45;;;;;;;13.15;8.38;;;;;;;16.36;100.00;97791.84;5012767;28;20494;-77
2021/08/23 03:43:11;;;;;;;13.18;8.20;;;;;;;16.36;100.00;97775.44;5013927;28;20536;-79
2021/08/23 03:45:38;;;;;;;12.27;7.55;;;;;;;16.05;100.00;97789.81;5015187;28;20432;-78
2021/08/23 03:48:05;;;;;;;9.77;6.53;;;;;;;16.02;100.00;97787.75;4996924;28;20058;-78
2021/08/23 03:50:31;;;;;;;8.60;5.55;;;;;;;16.07;100.00;97782.84;5014269;28;20450;-78
2021/08/23 03:52:58;;;;;;;9.63;6.03;;;;;;;16.00;100.00;97785.34;5013918;28;20045;-78
2021/08/23 03:55:25;;;;;;;8.35;5.97;;;;;;;16.16;100.00;97799.88;4995802;28;20449;-78
2021/08/23 03:57:51;;;;;;;10.48;5.90;;;;;;;16.10;100.00;97787.59;5013162;28;20086;-78
2021/08/23 04:00:18;;;;;;;12.80;6.50;;;;;;;16.28;100.00;97793.59;5014260;28;20046;-78
2021/08/23 04:02:45;;;;;;;8.93;5.72;;;;;;;16.53;100.00;97788.81;5007365;28;20042;-77
2021/08/23 04:05:12;;;;;;;10.82;5.78;;;;;;;16.28;100.00;97788.13;5001517;28;20069;-78
2021/08/23 04:07:38;;;;;;;7.88;4.97;;;;;;;16.21;100.00;97782.44;4996341;28;20294;-79
2021/08/23 04:10:06;;;;;;;7.85;4.45;;;;;;;16.23;100.00;97782.09;4993479;28;20075;-78
2021/08/23 04:12:40;;;;;;;7.10;3.75;;;;;;;16.21;100.00;97794.16;4995428;28;20038;-78
2021/08/23 04:15:07;;;;;;;5.38;3.78;;;;;;;16.17;100.00;97795.22;4993438;28;20046;-78
2021/08/23 04:17:36;;;;;;;6.78;4.10;;;;;;;16.23;100.00;97791.88;4992354;28;20688;-79
2021/08/23 04:20:06;;;;;;;8.60;4.10;;;;;;;16.59;100.00;97787.44;5002602;28;20039;-78
2021/08/23 04:22:35;;;;;;;6.07;4.30;;;;;;;16.46;100.00;97783.94;4978771;28;20046;-76
2021/08/23 04:25:06;;;;;;;7.70;4.20;;;;;;;16.49;100.00;97787.91;5014890;28;20041;-77
2021/08/23 04:27:32;;;;;;;7.75;3.55;;;;;;;16.48;100.00;97791.78;4995552;28;20077;-77
2021/08/23 04:29:59;;;;;;;6.57;3.50;;;;;;;16.52;100.00;97795.38;5016826;28;20046;-78
2021/08/23 04:32:26;;;;;;;6.82;3.35;;;;;;;16.53;100.00;97786.09;5007702;28;20073;-78
2021/08/23 04:34:52;;;;;;;5.55;3.60;;;;;;;16.54;100.00;97784.94;4966499;28;20049;-77
2021/08/23 04:37:19;;;;;;;7.07;3.60;;;;;;;16.17;100.00;97781.56;4980689;28;20050;-77
2021/08/23 04:40:15;;;;;;;5.65;3.15;;;;;;;15.88;100.00;97776.41;5060463;23;20046;-80
2021/08/23 04:42:41;;;;;;;6.57;3.65;;;;;;;15.97;100.00;97779.81;5029638;28;20093;-81
2021/08/23 04:45:08;;;;;;;6.97;3.53;;;;;;;16.02;100.00;97785.81;5008775;28;20045;-80
2021/08/23 04:47:35;;;;;;;6.97;3.90;;;;;;;16.13;100.00;97795.09;4992176;28;20117;-79
2021/08/23 04:50:02;;;;;;;14.15;4.13;;;;;;;16.13;100.00;97789.63;4991153;28;20057;-80
2021/08/23 04:52:28;;;;;;;7.80;4.00;;;;;;;16.28;100.00;97806.44;5008988;28;20471;-80
2021/08/23 04:55:00;;;;;;;7.53;4.20;;;;;;;16.35;100.00;97806.63;5008292;28;20057;-80
2021/08/23 04:57:27;;;;;;;5.93;3.95;;;;;;;16.16;100.00;97796.34;5005206;28;20126;-80
2021/08/23 04:59:54;;;;;;;6.97;4.47;;;;;;;16.14;100.00;97790.44;5007970;28;20057;-80
2021/08/23 05:02:20;;;;;;;7.55;4.40;;;;;;;16.10;100.00;97793.06;5008497;28;20045;-81
2021/08/23 05:04:47;;;;;;;9.30;3.95;;;;;;;16.04;100.00;97786.28;5007899;28;20111;-80
2021/08/23 05:07:14;;;;;;;8.50;4.05;;;;;;;16.10;100.00;97790.31;5007896;28;20077;-80
2021/08/23 05:09:41;;;;;;;7.22;3.85;;;;;;;16.10;100.00;97784.88;5007333;28;20049;-81
2021/08/23 05:12:07;;;;;;;6.63;4.18;;;;;;;16.09;100.00;97775.09;4990652;28;20050;-79
2021/08/23 05:14:34;;;;;;;7.95;4.30;;;;;;;16.13;100.00;97777.94;5007356;28;20041;-79
2021/08/23 05:17:00;;;;;;;8.73;3.58;;;;;;;16.14;100.00;97788.50;4982314;28;20038;-79
2021/08/23 05:19:27;;;;;;;11.55;4.40;;;;;;;16.13;100.00;97778.72;4989622;28;20057;-81
2021/08/23 05:21:53;;;;;;;6.65;4.18;;;;;;;16.23;100.00;97774.72;5002192;28;20079;-80
2021/08/23 05:24:20;;;;;;;12.30;4.00;;;;;;;16.23;100.00;97782.91;5011774;28;20410;-80
2021/08/23 05:26:46;;;;;;;8.35;3.58;;;;;;;16.23;100.00;97778.22;5011887;28;20053;-80
2021/08/23 05:29:14;;;;;;;7.20;3.97;;;;;;;16.18;100.00;97770.25;4994650;28;20057;-80
2021/08/23 05:31:40;;;;;;;12.90;4.13;;;;;;;16.25;100.00;97763.41;4987952;28;20107;-79
2021/08/23 05:34:07;;;;;;;9.40;4.25;;;;;;;16.31;100.00;97765.53;5006752;28;20103;-78
2021/08/23 05:36:33;;;;;;;9.50;5.45;;;;;;;16.32;100.00;97777.28;5008743;28;20488;-80
2021/08/23 05:39:00;;;;;;;7.40;5.00;;;;;;;16.36;100.00;97769.97;5010128;28;20050;-80
2021/08/23 05:41:27;;;;;;;7.32;4.88;;;;;;;16.21;100.00;97780.50;5008855;28;20564;-78
2021/08/23 05:43:53;;;;;;;9.73;4.78;;;;;;;16.23;100.00;97782.91;5008001;28;20293;-78
2021/08/23 05:46:21;;;;;;;8.75;4.00;;;;;;;16.13;100.00;97773.25;5005887;28;20095;-80
2021/08/23 05:48:49;;;;;;;9.18;4.32;;;;;;;16.24;100.00;97765.34;5007638;28;20197;-79
2021/08/23 05:51:17;;;;;;;14.27;3.97;;;;;;;16.14;100.00;97761.19;5008055;28;20060;-79
2021/08/23 05:53:44;;;;;;;6.03;3.45;;;;;;;16.03;100.00;97762.81;5007413;28;20341;-79
2021/08/23 05:56:11;;;;;;;8.77;3.80;;;;;;;16.00;100.00;97758.03;5007771;28;20327;-79
2021/08/23 05:58:38;;;;;;;5.63;3.60;;;;;;;15.99;100.00;97766.59;5009115;28;20336;-79
2021/08/23 06:01:05;;;;;;;5.22;3.65;;;;;;;16.03;100.00;97764.75;5008257;28;20050;-80
2021/08/23 06:03:32;;;;;;;7.95;4.03;;;;;;;16.08;100.00;97768.03;5006891;28;20057;-79
2021/08/23 06:06:17;;;;;;;5.60;3.70;;;;;;;16.10;100.00;97759.50;5007510;28;20096;-80
2021/08/23 06:08:44;;;;;;;4.13;3.38;;;;;;;16.16;100.00;97769.03;5007084;28;20104;-79
2021/08/23 06:11:10;;;;;;;4.82;3.55;;;;;;;16.10;100.00;97771.22;4987038;28;20049;-79
2021/08/23 06:13:37;;;;;;;5.07;3.97;;;;;;;16.14;100.00;97763.13;4985699;28;20042;-80
2021/08/23 06:16:03;;;;;;;4.80;3.63;;;;;;;16.09;100.00;97777.84;5008845;28;20074;-80
2021/08/23 06:18:30;;;;;;;5.00;3.70;;;;;;;16.04;100.00;97764.41;5010387;28;20556;-79
2021/08/23 06:20:59;;;;;;;3.70;3.10;;;;;;;16.10;100.00;97765.75;5009796;28;20057;-79
2021/08/23 06:23:28;;;;;;;4.03;3.47;;;;;;;16.21;100.00;97757.84;5010788;28;20038;-79
2021/08/23 06:25:54;;;;;;;4.57;3.30;;;;;;;16.26;100.00;97765.78;4991775;28;20453;-78
2021/08/23 06:28:22;;;;;;;3.80;2.65;;;;;;;16.18;100.00;97764.81;5008832;28;20057;-81
2021/08/23 06:30:48;;;;;;;3.55;2.90;;;;;;;16.36;100.00;97769.97;5009723;28;20478;-79
2021/08/23 06:33:15;;;;;;;6.47;3.35;;;;;;;16.31;100.00;97771.00;4990572;28;20443;-80
2021/08/23 06:35:42;;;;;;;4.82;2.85;;;;;;;16.30;100.00;97779.56;4990768;28;20053;-80
2021/08/23 06:38:08;;;;;;;4.65;2.95;;;;;;;16.35;100.00;97765.66;5009106;28;20053;-79
2021/08/23 06:40:35;;;;;;;7.22;3.17;;;;;;;16.44;100.00;97767.06;5008882;28;20127;-80
2021/08/23 06:43:03;;;;;;;9.52;3.33;;;;;;;16.54;100.00;97776.75;5008525;28;20046;-80
2021/08/23 06:45:29;;;;;;;5.10;2.85;;;;;;;16.47;100.00;97779.25;5008638;28;20410;-81
2021/08/23 06:47:56;;;;;;;5.13;2.70;;;;;;;16.52;100.00;97773.53;5009299;28;20096;-79
2021/08/23 06:50:23;;;;;;;4.07;2.70;;;;;;;16.61;100.00;97777.75;5009535;28;20046;-78
2021/08/23 06:52:51;;;;;;;4.22;2.95;;;;;;;16.57;100.00;97779.56;5007830;28;20060;-80
2021/08/23 06:55:17;;;;;;;4.82;2.80;;;;;;;16.62;100.00;97784.00;4990030;28;20045;-79
2021/08/23 06:57:44;;;;;;;3.83;2.33;;;;;;;16.61;100.00;97791.41;5008059;28;20049;-79
2021/08/23 07:00:11;;;;;;;4.05;2.35;;;;;;;16.66;100.00;97791.16;5008696;28;20050;-79
2021/08/23 07:02:41;;;;;;;3.97;2.25;;;;;;;16.62;100.00;97792.22;4990374;28;20053;-78
2021/08/23 07:05:09;;;;;;;5.20;2.67;;;;;;;16.53;100.00;97786.88;5007893;28;20505;-80
2021/08/23 07:07:36;;;;;;;4.55;2.90;;;;;;;16.64;100.00;97789.91;4990014;28;20033;-79
2021/08/23 07:10:04;;;;;;;5.25;3.08;;;;;;;16.74;100.00;97786.66;5008370;28;20047;-79
2021/08/23 07:12:31;;;;;;;5.90;3.60;;;;;;;16.75;100.00;97788.22;4990436;28;20101;-79
2021/08/23 07:14:58;;;;;;;4.18;2.97;;;;;;;16.70;100.00;97791.22;5007838;28;20042;-79
2021/08/23 07:17:24;;;;;;;4.82;3.33;;;;;;;16.78;100.00;97788.34;4990324;28;20049;-79
2021/08/23 07:19:51;;;;;;;4.07;2.97;;;;;;;16.89;100.00;97785.06;5008879;28;20386;-80
2021/08/23 07:22:22;;;;;;;4.65;3.45;;;;;;;16.97;100.00;97790.38;5007643;28;20104;-79
2021/08/23 07:24:48;;;;;;;6.70;4.93;;;;;;;16.91;100.00;97791.78;5007841;28;20061;-79
2021/08/23 07:27:15;;;;;;;10.70;7.95;;;;;;;16.79;100.00;97787.19;4989996;28;20643;-80
2021/08/23 07:29:42;;;;;;;10.90;8.85;;;;;;;16.80;100.00;97798.94;5007086;28;20053;-80
2021/08/23 07:32:09;;;;;;;14.35;10.98;;;;;;;16.93;100.00;97794.19;5008344;28;20268;-80
2021/08/23 07:34:35;;;;;;;16.13;11.80;;;;;;;16.95;100.00;97789.16;5008226;28;20050;-79
2021/08/23 07:37:02;;;;;;;16.42;11.70;;;;;;;16.94;100.00;97795.75;5007562;28;20166;-78
2021/08/23 07:39:29;;;;;;;18.98;11.52;;;;;;;16.81;100.00;97795.03;5007617;28;20314;-79
2021/08/23 07:41:56;;;;;;;15.88;11.70;;;;;;;16.85;100.00;97803.34;4989399;28;20053;-80
2021/08/23 07:44:22;;;;;;;17.17;12.02;;;;;;;16.78;100.00;97803.94;5008055;28;20253;-80
2021/08/23 07:46:49;;;;;;;17.00;12.32;;;;;;;16.91;100.00;97801.91;5007741;28;20053;-79
2021/08/23 07:49:15;;;;;;;18.10;13.10;;;;;;;17.20;100.00;97804.22;5007770;28;20120;-80
2021/08/23 07:51:42;;;;;;;18.77;12.43;;;;;;;16.91;100.00;97799.97;5008228;28;20042;-79
2021/08/23 07:54:08;;;;;;;16.95;12.00;;;;;;;16.97;100.00;97797.78;5008218;28;20090;-80
2021/08/23 07:56:35;;;;;;;17.33;10.60;;;;;;;17.02;100.00;97800.25;5007507;28;20509;-79
2021/08/23 07:59:01;;;;;;;17.83;10.18;;;;;;;17.05;100.00;97799.56;5008536;28;20061;-80
2021/08/23 08:01:28;;;;;;;13.55;9.82;;;;;;;17.10;100.00;97797.34;4991701;28;20073;-80
2021/08/23 08:03:55;;;;;;;12.10;7.95;;;;;;;17.09;100.00;97792.22;4991836;28;20510;-80
2021/08/23 08:06:22;;;;;;;13.32;8.77;;;;;;;17.67;100.00;97804.22;4990264;28;20092;-80
2021/08/23 08:08:48;;;;;;;13.77;7.20;;;;;;;16.64;100.00;97811.78;4973791;28;20046;-79
2021/08/23 08:11:15;;;;;;;7.38;6.20;;;;;;;16.74;100.00;97811.25;4987514;28;20046;-79
2021/08/23 08:13:42;;;;;;;7.43;5.75;;;;;;;16.69;100.00;97811.53;4973718;28;20084;-80
2021/08/23 08:16:09;;;;;;;9.20;6.30;;;;;;;16.81;100.00;97814.19;4990099;28;20042;-80
2021/08/23 08:18:38;;;;;;;6.53;5.20;;;;;;;16.73;100.00;97817.88;4974517;28;20153;-80
2021/08/23 08:21:05;;;;;;;6.13;4.75;;;;;;;16.77;100.00;97814.09;4973662;28;20058;-80
2021/08/23 08:23:32;;;;;;;4.78;3.97;;;;;;;16.77;100.00;97807.84;4990913;28;20061;-80
2021/08/23 08:25:59;;;;;;;6.05;4.70;;;;;;;16.76;100.00;97814.44;4974205;28;20185;-80
2021/08/23 08:28:25;;;;;;;7.43;5.60;;;;;;;16.83;100.00;97815.41;5008502;28;20046;-80
2021/08/23 08:30:52;;;;;;;4.63;3.95;;;;;;;16.85;100.00;97815.09;5008657;28;20116;-80
2021/08/23 08:33:18;;;;;;;6.07;4.93;;;;;;;16.89;100.00;97813.22;4990725;28;20061;-79
2021/08/23 08:35:45;;;;;;;7.85;3.20;;;;;;;16.91;100.00;97812.84;5008168;28;20045;-81
2021/08/23 08:38:11;;;;;;;3.90;2.95;;;;;;;16.87;100.00;97817.44;5007423;28;20406;-80
2021/08/23 08:40:38;;;;;;;3.78;3.00;;;;;;;16.96;100.00;97813.41;5007952;28;20116;-80
2021/08/23 08:43:05;;;;;;;4.40;3.15;;;;;;;16.96;100.00;97829.00;5006845;28;20115;-80
2021/08/23 08:45:31;;;;;;;5.15;3.40;;;;;;;16.97;100.00;97823.19;5006480;28;20050;-80
2021/08/23 08:48:02;;;;;;;4.65;2.17;;;;;;;16.89;100.00;97824.16;4989901;28;20406;-80
2021/08/23 08:50:29;;;;;;;2.90;2.17;;;;;;;16.79;100.00;97828.22;4990051;28;20394;-80
2021/08/23 08:52:56;;;;;;;2.60;2.03;;;;;;;16.81;100.00;97836.06;4989505;28;20084;-80
2021/08/23 08:55:22;;;;;;;5.80;1.50;;;;;;;16.83;100.00;97831.81;4989597;28;20045;-78
2021/08/23 08:57:49;;;;;;;2.00;1.50;;;;;;;16.88;100.00;97838.19;5009325;28;20450;-80
2021/08/23 09:00:16;;;;;;;1.88;1.50;;;;;;;17.00;100.00;97838.91;4994485;28;20396;-80
2021/08/23 09:02:54;;;;;;;1.60;1.40;;;;;;;16.89;100.00;97837.84;5012113;28;20375;-80
2021/08/23 09:05:21;;;;;;;6.95;1.95;;;;;;;16.97;100.00;97839.63;5011868;28;20050;-80
2021/08/23 09:07:49;;;;;;;1.90;1.67;;;;;;;16.85;100.00;97842.44;5013322;28;20116;-81
2021/08/23 09:10:25;;;;;;;2.17;1.90;;;;;;;16.89;100.00;97839.75;5012568;28;20470;-81
2021/08/23 09:13:10;;;;;;;2.85;1.85;;;;;;;16.89;100.00;97837.84;5014471;28;20457;-80
2021/08/23 09:15:50;;;;;;;2.53;2.08;;;;;;;16.98;100.00;97843.91;5010678;28;20076;-81
2021/08/23 09:18:20;;;;;;;2.95;1.63;;;;;;;16.88;100.00;97841.69;5010933;28;20072;-81
2021/08/23 09:20:56;;;;;;;2.00;1.70;;;;;;;17.04;100.00;97852.66;5012972;28;20477;-82
2021/08/23 09:23:31;;;;;;;;;;;;;;;17.11;100.00;97848.16;4998566;28;20045;-80
2021/08/23 09:26:15;;;;;;;2.13;1.50;;;;;;;17.17;100.00;97846.78;5010932;28;19929;-78
2021/08/23 09:28:54;;;;;;;5.10;1.63;;;;;;;17.16;100.00;97847.91;4993389;28;20053;-81
2021/08/23 09:31:26;;;;;;;2.22;1.13;;;;;;;17.15;100.00;97843.59;4993630;28;20136;-80
2021/08/23 09:33:52;;;;;;;2.70;1.40;;;;;;;17.27;100.00;97846.25;5011518;28;20088;-80
2021/08/23 09:36:22;;;;;;;3.03;1.65;;;;;;;17.14;100.00;97844.75;5011595;28;20041;-80
2021/08/23 09:39:07;;;;;;;3.72;1.42;;;;;;;17.21;100.00;97852.34;4994044;28;20502;-80
2021/08/23 09:41:40;;;;;;;1.98;1.58;;;;;;;17.43;100.00;97847.03;5009202;28;20096;-80
2021/08/23 09:44:12;;;;;;;3.05;1.40;;;;;;;17.36;100.00;97846.88;5010526;28;20060;-80
2021/08/23 09:46:42;;;;;;;1.67;1.42;;;;;;;17.42;100.00;97839.97;5010681;28;20041;-78
2021/08/23 09:49:12;;;;;;;1.38;1.00;;;;;;;17.40;100.00;97852.41;5012078;28;20038;-82
2021/08/23 09:51:41;;;;;;;1.70;1.10;;;;;;;17.51;100.00;97850.75;5013943;28;20418;-81
2021/08/23 09:54:16;;;;;;;1.67;1.13;;;;;;;17.58;100.00;97850.13;5013114;28;20265;-81
2021/08/23 09:56:48;;;;;;;1.73;1.27;;;;;;;17.48;100.00;97853.38;4995404;28;20042;-82
2021/08/23 09:59:18;;;;;;;2.22;1.00;;;;;;;17.26;100.00;97852.88;4995544;28;20501;-81
2021/08/23 10:01:47;;;;;;;3.63;1.10;;;;;;;17.39;100.00;97851.63;5008501;28;20084;-81
2021/08/23 10:04:15;;;;;;;2.63;1.35;;;;;;;17.44;100.00;97847.84;5010868;28;20046;-81
2021/08/23 10:06:43;;;;;;;2.33;1.38;;;;;;;17.49;100.00;97849.50;4992818;28;20202;-81
2021/08/23 10:09:15;;;;;;;1.88;1.20;;;;;;;17.50;100.00;97856.59;5010003;28;20042;-81
2021/08/23 10:11:42;;;;;;;1.92;1.05;;;;;;;17.76;100.00;97854.88;4991924;28;20054;-81
2021/08/23 10:14:08;;;;;;;1.42;1.02;;;;;;;17.72;100.00;97858.69;5009791;28;20100;-81
2021/08/23 10:16:35;;;;;;;1.15;0.80;;;;;;;17.67;100.00;97864.44;5009908;28;20058;-81
2021/08/23 10:19:04;;;;;;;1.10;0.95;;;;;;;17.84;100.00;97862.13;5010767;28;20057;-80
2021/08/23 10:21:32;;;;;;;5.93;1.10;;;;;;;17.70;100.00;97863.75;5009566;28;20045;-81
2021/08/23 10:24:00;;;;;;;1.77;1.30;;;;;;;17.69;100.00;97862.16;5009502;28;20453;-81
2021/08/23 10:26:27;;;;;;;6.72;1.50;;;;;;;17.58;100.00;97861.88;5009417;28;20140;-80
2021/08/23 10:28:54;;;;;;;4.20;1.35;;;;;;;17.74;100.00;97868.16;4992861;28;20056;-81
2021/08/23 10:31:22;;;;;;;4.40;1.38;;;;;;;17.78;100.00;97873.72;5008826;28;20050;-81
2021/08/23 10:33:49;;;;;;;2.10;1.40;;;;;;;17.55;100.00;97872.78;5009475;28;20104;-81
2021/08/23 10:36:17;;;;;;;3.08;1.10;;;;;;;17.60;100.00;97877.97;5027315;22;20108;-79
2021/08/23 10:38:46;;;;;;;2.50;0.88;;;;;;;17.50;100.00;97875.75;5009988;28;20284;-77
2021/08/23 10:41:17;;;;;;;3.15;0.68;;;;;;;17.42;100.00;97874.78;4993603;28;20053;-80
2021/08/23 10:43:56;;;;;;;2.72;0.95;;;;;;;17.47;100.00;97882.72;5000185;28;20137;-79
2021/08/23 10:46:33;;;;;;;1.63;0.60;;;;;;;17.23;100.00;97891.88;4991900;28;20499;-80
2021/08/23 10:49:23;;;;;;;1.05;0.50;;;;;;;17.05;100.00;97878.88;5017687;22;20426;-77
2021/08/23 10:52:00;;;;;;;1.02;0.40;;;;;;;16.90;100.00;97893.31;5010825;28;20061;-79
2021/08/23 10:54:34;;;;;;;0.50;0.30;;;;;;;17.09;100.00;97891.50;5010094;28;20121;-78
2021/08/23 10:57:01;;;;;;;0.77;0.47;;;;;;;17.04;100.00;97891.75;4994658;28;20050;-77
2021/08/23 10:59:48;;;;;;;2.47;1.30;;;;;;;16.93;100.00;97904.34;4975049;28;20134;-78
2021/08/23 11:02:36;;;;;;;2.28;1.00;;;;;;;16.88;100.00;97901.88;5010526;28;20045;-77
2021/08/23 11:05:10;;;;;;;4.78;1.35;;;;;;;17.11;100.00;97902.88;4957872;28;20166;-77
2021/08/23 11:07:39;;;;;;;2.05;0.85;;;;;;;17.21;100.00;97904.34;4973863;28;20850;-77
2021/08/23 11:10:11;;;;;;;1.13;0.70;;;;;;;17.21;100.00;97899.66;4992256;28;20145;-78
2021/08/23 11:12:47;;;;;;;2.15;0.80;;;;;;;17.21;100.00;97901.59;4993027;28;20149;-78
2021/08/23 11:15:24;;;;;;;1.98;0.90;;;;;;;17.25;100.00;97900.53;4995770;28;20042;-79
2021/08/23 11:17:55;;;;;;;1.67;0.60;;;;;;;17.11;100.00;97907.59;4977317;28;20076;-79
2021/08/23 11:20:25;;;;;;;1.27;0.30;;;;;;;16.90;100.00;97902.34;4994119;28;20521;-78
2021/08/23 11:22:58;;;;;;;1.02;0.40;;;;;;;16.79;100.00;97903.97;4961993;28;20046;-78
2021/08/23 11:26:01;;;;;;;0.75;0.30;;;;;;;16.72;100.00;97920.19;4978239;28;20060;-80
2021/08/23 11:28:30;;;;;;;0.45;0.40;;;;;;;16.89;100.00;97914.41;4979019;28;20042;-79
2021/08/23 11:31:00;;;;;;;3.78;2.80;;;;;;;16.70;100.00;97917.78;4978447;28;20046;-80